Gao Qiang — VRVQ8 — position and weather

sailwx.info

Track history (hours):
 
Tides and Currents Weather Stations Pressure Air Temp Water Temp Dewpoint Dewpoint Depression Visibility Wind Speed Wind Dir Waves Ship Positions

Gao Qiang

Last reported at 2014-Sep-05 12:33 UTC. Time now 2014-Sep-16 21:35 UTC.
Position N 35°39' W 006°29'.
Warning: this ship's position is 11 days out of date.

Length 186 m; draft 6.4 m.

Type: Cargo ship. MMSI: 477611000.

Date/timePositionNaut miles runAvg speedWind from/ knotsBaromVisibWave heightAir tempDewpointWater temp
2014-Sep-05 12:33N 35°39' W 006°29'64 2.8
2014-Sep-04 13:29N 36°05' W 005°17'21011.5
2014-Sep-03 19:13N 37°04' W 001°06'913.8
2014-Sep-03 18:33N 37°10' W 000°57'1313.6
2014-Sep-03 17:33N 37°18' W 000°43'1413.6
2014-Sep-03 16:33N 37°26' W 000°30'1212.4
2014-Sep-03 15:33N 37°38' W 000°23'1313.1
2014-Sep-03 14:32N 37°51' W 000°23'1313.0
2014-Sep-03 13:33N 38°04' W 000°23'15 0.4
2014-Sep-02 03:32N 38°19' W 000°24'5 4.7
2014-Sep-02 02:31N 38°20' W 000°19'1611.7
2014-Sep-02 01:08N 38°22' E 000°02'912.7
2014-Sep-02 00:26N 38°24' E 000°13'1213.2
2014-Sep-01 23:33N 38°26' E 000°28'1413.2
2014-Sep-01 22:31N 38°27' E 000°45'1313.5
2014-Sep-01 21:33N 38°28' E 001°02'1313.2
2014-Sep-01 20:32N 38°30' E 001°19'1313.5
2014-Sep-01 19:32N 38°32' E 001°36'1313.4
2014-Sep-01 18:32N 38°34' E 001°53'1413.5
2014-Sep-01 17:32N 38°35' E 002°10'1313.3
2014-Sep-01 16:33N 38°36' E 002°27'1514.1
2014-Sep-01 15:30N 38°36' E 002°46'1312.6
2014-Sep-01 14:28N 38°37' E 003°02'1913.2
2014-Sep-01 13:03N 38°36' E 003°26'23013.0
2014-Aug-31 19:24N 38°43' E 008°21'1113.1
2014-Aug-31 18:33N 38°43' E 008°35'1312.8
2014-Aug-31 17:33N 38°43' E 008°51'1212.5
2014-Aug-31 16:33N 38°44' E 009°07'1312.7
2014-Aug-31 15:33N 38°44' E 009°24'1313.2
2014-Aug-31 14:33N 38°45' E 009°40'1313.2
2014-Aug-31 13:33N 38°45' E 009°57'1313.1
2014-Aug-31 12:33N 38°50' E 010°13'18913.4
2014-Aug-30 22:24N 40°16' E 013°52'1213.6
2014-Aug-30 21:33N 40°22' E 014°05'141 4.4
2014-Aug-29 13:25N 41°20' E 011°15'6613.3
2014-Aug-29 08:27N 41°58' E 010°03'9113.1
2014-Aug-29 01:31N 43°25' E 009°32'1313.3
2014-Aug-29 00:33N 43°37' E 009°25'1313.4
2014-Aug-28 23:33N 43°50' E 009°18'1313.2
2014-Aug-28 22:33N 44°02' E 009°10'1313.2
2014-Aug-28 21:33N 44°14' E 009°02'1111.4
2014-Aug-28 20:33N 44°24' E 008°55'1 1.2
2014-Aug-28 19:25N 44°24' E 008°54'0 0.0
2014-Aug-28 18:31N 44°24' E 008°54'0 0.0
2014-Aug-28 17:31N 44°24' E 008°54'0 0.0
2014-Aug-28 16:31N 44°24' E 008°54'0 0.0
2014-Aug-28 15:31N 44°24' E 008°54'0 0.0
2014-Aug-28 14:31N 44°24' E 008°54'0 0.0
2014-Aug-28 13:31N 44°24' E 008°54'0 0.0
2014-Aug-28 12:28N 44°24' E 008°54'0 0.0
2014-Aug-28 11:28N 44°24' E 008°54'0 0.0
2014-Aug-28 10:31N 44°24' E 008°54'0 0.0
2014-Aug-28 09:31N 44°24' E 008°54'0 0.0
2014-Aug-28 08:31N 44°24' E 008°54'0 0.0
2014-Aug-28 07:31N 44°24' E 008°54'0 0.0
2014-Aug-28 06:25N 44°24' E 008°54'0 0.0
2014-Aug-28 05:31N 44°24' E 008°54'0 0.0
2014-Aug-28 04:04N 44°24' E 008°54'0 0.0
2014-Aug-28 03:13N 44°24' E 008°54'0 0.0
2014-Aug-28 02:25N 44°24' E 008°54'0 0.0
2014-Aug-28 01:28N 44°24' E 008°54'0 0.0
2014-Aug-28 00:31N 44°24' E 008°54'0 0.0
2014-Aug-27 23:25N 44°24' E 008°54'0 0.0
2014-Aug-27 22:22N 44°24' E 008°54'0 0.0
2014-Aug-27 21:31N 44°24' E 008°54'0 0.0
2014-Aug-27 20:31N 44°24' E 008°54'0 0.0
2014-Aug-27 19:31N 44°24' E 008°54'0 0.0
2014-Aug-27 18:22N 44°24' E 008°54'0 0.0
2014-Aug-27 17:31N 44°24' E 008°54'0 0.0
2014-Aug-27 16:31N 44°24' E 008°54'0 0.0
2014-Aug-27 15:31N 44°24' E 008°54'0 0.0
2014-Aug-27 14:25N 44°24' E 008°54'0 0.0
2014-Aug-27 13:31N 44°24' E 008°54'0 0.0
2014-Aug-27 12:31N 44°24' E 008°54'0 0.0
2014-Aug-27 11:31N 44°24' E 008°54'0 0.0
2014-Aug-27 10:13N 44°24' E 008°54'0 0.0
2014-Aug-27 09:28N 44°24' E 008°54'0 0.0
2014-Aug-27 08:19N 44°24' E 008°54'0 0.0
2014-Aug-27 07:22N 44°24' E 008°54'0 0.0
2014-Aug-27 06:31N 44°24' E 008°54'0 0.0
2014-Aug-27 05:31N 44°24' E 008°54'0 0.0
2014-Aug-27 04:19N 44°24' E 008°54'0 0.0
2014-Aug-27 03:25N 44°24' E 008°54'0 0.0
2014-Aug-27 02:25N 44°24' E 008°54'0 0.0
2014-Aug-27 01:31N 44°24' E 008°54'0 0.0
2014-Aug-27 00:31N 44°24' E 008°54'0 0.0
2014-Aug-26 23:25N 44°24' E 008°54'1 1.2
2014-Aug-26 22:33N 44°24' E 008°55'5 5.5
2014-Aug-26 21:33N 44°20' E 008°60'3 2.6
2014-Aug-26 20:30N 44°21' E 009°03'0 0.0
2014-Aug-26 19:30N 44°21' E 009°03'0 0.0
2014-Aug-26 18:33N 44°21' E 009°03'0 0.0
2014-Aug-26 17:33N 44°21' E 009°03'0 0.0
2014-Aug-26 16:33N 44°21' E 009°03'0 0.0
2014-Aug-26 15:33N 44°21' E 009°03'0 0.0
2014-Aug-26 14:33N 44°21' E 009°03'0 0.0
2014-Aug-26 13:33N 44°21' E 009°03'  
Track history (hours):
 
Tides and Currents Weather Stations Pressure Air Temp Water Temp Dewpoint Dewpoint Depression Visibility Wind Speed Wind Dir Waves Ship Positions

Gao Qiang

Last reported at 2014-Sep-05 12:33 UTC. Time now 2014-Sep-16 21:35 UTC.
Position N 35°39' W 006°29'.
Warning: this ship's position is 11 days out of date.

Length 186 m; draft 6.4 m.

Type: Cargo ship. MMSI: 477611000.

Date/timePositionNaut miles runAvg speedWind from/ knotsBaromVisibWave heightAir tempDewpointWater temp
2014-Sep-05 12:33N 35°39' W 006°29'64 2.8
2014-Sep-04 13:29N 36°05' W 005°17'21011.5
2014-Sep-03 19:13N 37°04' W 001°06'913.8
2014-Sep-03 18:33N 37°10' W 000°57'1313.6
2014-Sep-03 17:33N 37°18' W 000°43'1413.6
2014-Sep-03 16:33N 37°26' W 000°30'1212.4
2014-Sep-03 15:33N 37°38' W 000°23'1313.1
2014-Sep-03 14:32N 37°51' W 000°23'1313.0
2014-Sep-03 13:33N 38°04' W 000°23'15 0.4
2014-Sep-02 03:32N 38°19' W 000°24'5 4.7
2014-Sep-02 02:31N 38°20' W 000°19'1611.7
2014-Sep-02 01:08N 38°22' E 000°02'912.7
2014-Sep-02 00:26N 38°24' E 000°13'1213.2
2014-Sep-01 23:33N 38°26' E 000°28'1413.2
2014-Sep-01 22:31N 38°27' E 000°45'1313.5
2014-Sep-01 21:33N 38°28' E 001°02'1313.2
2014-Sep-01 20:32N 38°30' E 001°19'1313.5
2014-Sep-01 19:32N 38°32' E 001°36'1313.4
2014-Sep-01 18:32N 38°34' E 001°53'1413.5
2014-Sep-01 17:32N 38°35' E 002°10'1313.3
2014-Sep-01 16:33N 38°36' E 002°27'1514.1
2014-Sep-01 15:30N 38°36' E 002°46'1312.6
2014-Sep-01 14:28N 38°37' E 003°02'1913.2
2014-Sep-01 13:03N 38°36' E 003°26'23013.0
2014-Aug-31 19:24N 38°43' E 008°21'1113.1
2014-Aug-31 18:33N 38°43' E 008°35'1312.8
2014-Aug-31 17:33N 38°43' E 008°51'1212.5
2014-Aug-31 16:33N 38°44' E 009°07'1312.7
2014-Aug-31 15:33N 38°44' E 009°24'1313.2
2014-Aug-31 14:33N 38°45' E 009°40'1313.2
2014-Aug-31 13:33N 38°45' E 009°57'1313.1
2014-Aug-31 12:33N 38°50' E 010°13'18913.4
2014-Aug-30 22:24N 40°16' E 013°52'1213.6
2014-Aug-30 21:33N 40°22' E 014°05'141 4.4
2014-Aug-29 13:25N 41°20' E 011°15'6613.3
2014-Aug-29 08:27N 41°58' E 010°03'9113.1
2014-Aug-29 01:31N 43°25' E 009°32'1313.3
2014-Aug-29 00:33N 43°37' E 009°25'1313.4
2014-Aug-28 23:33N 43°50' E 009°18'1313.2
2014-Aug-28 22:33N 44°02' E 009°10'1313.2
2014-Aug-28 21:33N 44°14' E 009°02'1111.4
2014-Aug-28 20:33N 44°24' E 008°55'1 1.2
2014-Aug-28 19:25N 44°24' E 008°54'0 0.0
2014-Aug-28 18:31N 44°24' E 008°54'0 0.0
2014-Aug-28 17:31N 44°24' E 008°54'0 0.0
2014-Aug-28 16:31N 44°24' E 008°54'0 0.0
2014-Aug-28 15:31N 44°24' E 008°54'0 0.0
2014-Aug-28 14:31N 44°24' E 008°54'0 0.0
2014-Aug-28 13:31N 44°24' E 008°54'0 0.0
2014-Aug-28 12:28N 44°24' E 008°54'0 0.0
2014-Aug-28 11:28N 44°24' E 008°54'0 0.0
2014-Aug-28 10:31N 44°24' E 008°54'0 0.0
2014-Aug-28 09:31N 44°24' E 008°54'0 0.0
2014-Aug-28 08:31N 44°24' E 008°54'0 0.0
2014-Aug-28 07:31N 44°24' E 008°54'0 0.0
2014-Aug-28 06:25N 44°24' E 008°54'0 0.0
2014-Aug-28 05:31N 44°24' E 008°54'0 0.0
2014-Aug-28 04:04N 44°24' E 008°54'0 0.0
2014-Aug-28 03:13N 44°24' E 008°54'0 0.0
2014-Aug-28 02:25N 44°24' E 008°54'0 0.0
2014-Aug-28 01:28N 44°24' E 008°54'0 0.0
2014-Aug-28 00:31N 44°24' E 008°54'0 0.0
2014-Aug-27 23:25N 44°24' E 008°54'0 0.0
2014-Aug-27 22:22N 44°24' E 008°54'0 0.0
2014-Aug-27 21:31N 44°24' E 008°54'0 0.0
2014-Aug-27 20:31N 44°24' E 008°54'0 0.0
2014-Aug-27 19:31N 44°24' E 008°54'0 0.0
2014-Aug-27 18:22N 44°24' E 008°54'0 0.0
2014-Aug-27 17:31N 44°24' E 008°54'0 0.0
2014-Aug-27 16:31N 44°24' E 008°54'0 0.0
2014-Aug-27 15:31N 44°24' E 008°54'0 0.0
2014-Aug-27 14:25N 44°24' E 008°54'0 0.0
2014-Aug-27 13:31N 44°24' E 008°54'0 0.0
2014-Aug-27 12:31N 44°24' E 008°54'0 0.0
2014-Aug-27 11:31N 44°24' E 008°54'0 0.0
2014-Aug-27 10:13N 44°24' E 008°54'0 0.0
2014-Aug-27 09:28N 44°24' E 008°54'0 0.0
2014-Aug-27 08:19N 44°24' E 008°54'0 0.0
2014-Aug-27 07:22N 44°24' E 008°54'0 0.0
2014-Aug-27 06:31N 44°24' E 008°54'0 0.0
2014-Aug-27 05:31N 44°24' E 008°54'0 0.0
2014-Aug-27 04:19N 44°24' E 008°54'0 0.0
2014-Aug-27 03:25N 44°24' E 008°54'0 0.0
2014-Aug-27 02:25N 44°24' E 008°54'0 0.0
2014-Aug-27 01:31N 44°24' E 008°54'0 0.0
2014-Aug-27 00:31N 44°24' E 008°54'0 0.0
2014-Aug-26 23:25N 44°24' E 008°54'1 1.2
2014-Aug-26 22:33N 44°24' E 008°55'5 5.5
2014-Aug-26 21:33N 44°20' E 008°60'3 2.6
2014-Aug-26 20:30N 44°21' E 009°03'0 0.0
2014-Aug-26 19:30N 44°21' E 009°03'0 0.0
2014-Aug-26 18:33N 44°21' E 009°03'0 0.0
2014-Aug-26 17:33N 44°21' E 009°03'0 0.0
2014-Aug-26 16:33N 44°21' E 009°03'0 0.0
2014-Aug-26 15:33N 44°21' E 009°03'0 0.0
2014-Aug-26 14:33N 44°21' E 009°03'0 0.0
2014-Aug-26 13:33N 44°21' E 009°03'  

Dump ship's entire track history